createdAt,value
2022-11-18T00:00:08.168Z,7.94
2022-11-18T00:02:41.198Z,7.58
2022-11-18T00:05:14.041Z,7.33
2022-11-18T00:07:47.149Z,7.00
2022-11-18T00:10:20.179Z,6.66
2022-11-18T00:13:11.019Z,6.38
2022-11-18T00:15:44.442Z,6.12
2022-11-18T00:18:17.245Z,5.72
2022-11-18T00:20:50.847Z,5.37
2022-11-18T00:23:23.857Z,5.03
2022-11-18T00:25:57.004Z,4.85
2022-11-18T00:28:29.811Z,4.76
2022-11-18T00:31:13.376Z,4.61
2022-11-18T00:33:46.281Z,4.52
2022-11-18T00:36:19.153Z,4.42
2022-11-18T00:38:52.070Z,4.32
2022-11-18T00:41:25.211Z,4.27
2022-11-18T00:43:57.995Z,4.20
2022-11-18T00:46:32.650Z,4.16
2022-11-18T00:49:05.943Z,4.06
2022-11-18T00:51:39.104Z,3.95
2022-11-18T00:54:13.018Z,3.80
2022-11-18T00:56:45.822Z,3.70
2022-11-18T00:59:18.894Z,3.58
2022-11-18T01:01:52.485Z,3.51
2022-11-18T01:04:25.748Z,3.46
2022-11-18T01:06:59.041Z,3.42
2022-11-18T01:09:32.173Z,3.43
2022-11-18T01:12:23.163Z,3.41
2022-11-18T01:14:56.759Z,3.39
2022-11-18T01:17:33.817Z,3.33
2022-11-18T01:20:08.293Z,3.27
2022-11-18T01:22:42.758Z,3.23
2022-11-18T01:25:15.978Z,3.21
2022-11-18T01:27:48.723Z,3.22
2022-11-18T01:30:21.871Z,3.16
2022-11-18T01:32:54.936Z,3.06
2022-11-18T01:35:27.876Z,3.03
2022-11-18T01:38:00.685Z,2.94
2022-11-18T01:40:34.407Z,2.85
2022-11-18T01:43:14.531Z,2.83
2022-11-18T01:45:50.321Z,2.86
2022-11-18T01:48:33.472Z,2.86
2022-11-18T01:51:17.121Z,2.86
2022-11-18T01:53:53.887Z,2.81
2022-11-18T01:56:39.778Z,2.87
2022-11-18T01:59:17.329Z,2.89
2022-11-18T02:01:53.014Z,2.86
2022-11-18T02:04:26.760Z,2.85
2022-11-18T02:06:59.855Z,2.93
2022-11-18T02:09:33.762Z,2.92
2022-11-18T02:12:07.628Z,2.92
2022-11-18T02:14:45.141Z,2.88
2022-11-18T02:17:42.168Z,2.86
2022-11-18T02:20:20.934Z,2.85
2022-11-18T02:23:27.141Z,2.84
2022-11-18T02:26:39.569Z,2.84
2022-11-18T02:29:41.458Z,2.87
2022-11-18T02:32:20.803Z,2.82
2022-11-18T02:35:23.022Z,2.79
2022-11-18T02:38:05.790Z,2.79
2022-11-18T02:41:06.902Z,2.77
2022-11-18T02:43:49.416Z,2.82
2022-11-18T02:46:33.475Z,2.92
2022-11-18T02:49:17.796Z,2.95
2022-11-18T02:51:52.184Z,2.95
2022-11-18T02:54:26.231Z,2.94
2022-11-18T02:57:00.185Z,2.89
2022-11-18T02:59:33.860Z,2.89
2022-11-18T03:02:07.249Z,2.89
2022-11-18T03:04:41.156Z,2.93
2022-11-18T03:07:32.204Z,2.99
2022-11-18T03:10:05.842Z,3.04
2022-11-18T03:12:45.941Z,3.07
2022-11-18T03:15:30.184Z,3.10
2022-11-18T03:18:23.296Z,3.14
2022-11-18T03:21:06.838Z,3.14
2022-11-18T03:23:47.116Z,3.07
2022-11-18T03:26:24.647Z,3.02
2022-11-18T03:29:11.436Z,2.89
2022-11-18T03:31:51.319Z,2.85
2022-11-18T03:34:41.499Z,2.82
2022-11-18T03:37:17.870Z,2.81
2022-11-18T03:39:55.524Z,2.76
2022-11-18T03:42:35.920Z,2.77
2022-11-18T03:45:13.471Z,2.75
2022-11-18T03:47:52.210Z,2.75
2022-11-18T03:50:28.965Z,2.77
2022-11-18T03:53:03.613Z,2.76
2022-11-18T03:55:41.278Z,2.73
2022-11-18T03:58:41.501Z,2.73
2022-11-18T04:01:21.612Z,2.70
2022-11-18T04:03:55.008Z,2.68
2022-11-18T04:06:32.613Z,2.70
2022-11-18T04:09:13.114Z,2.71
2022-11-18T04:12:03.949Z,2.68
2022-11-18T04:14:42.205Z,2.63
2022-11-18T04:17:18.712Z,2.60
2022-11-18T04:19:51.681Z,2.48
2022-11-18T04:22:25.212Z,2.34
2022-11-18T04:24:58.217Z,2.25
2022-11-18T04:27:30.966Z,2.14
2022-11-18T04:30:04.618Z,2.06
2022-11-18T04:32:37.529Z,1.98
2022-11-18T04:35:10.693Z,1.95
2022-11-18T04:37:44.127Z,1.92
2022-11-18T04:40:17.671Z,1.90
2022-11-18T04:42:51.172Z,1.88
2022-11-18T04:45:24.209Z,1.89
2022-11-18T04:48:03.108Z,1.83
2022-11-18T04:50:31.999Z,1.81
2022-11-18T04:53:04.836Z,1.75
2022-11-18T04:55:40.601Z,1.75
2022-11-18T04:58:14.228Z,1.84
2022-11-18T05:00:47.149Z,1.75
2022-11-18T05:03:20.264Z,1.72
2022-11-18T05:05:53.308Z,1.70
2022-11-18T05:08:26.262Z,1.71
2022-11-18T05:11:00.934Z,1.63
2022-11-18T05:13:33.828Z,1.60
2022-11-18T05:16:07.381Z,1.59
2022-11-18T05:18:40.863Z,1.62
2022-11-18T05:21:13.939Z,1.68
2022-11-18T05:23:46.672Z,1.71
2022-11-18T05:26:19.847Z,1.67
2022-11-18T05:28:53.003Z,1.61
2022-11-18T05:31:26.388Z,1.59
2022-11-18T05:34:00.085Z,1.51
2022-11-18T05:36:33.290Z,1.49
2022-11-18T05:39:06.334Z,1.49
2022-11-18T05:41:58.346Z,1.52
2022-11-18T05:44:31.124Z,1.57
2022-11-18T05:47:04.587Z,1.61
2022-11-18T05:49:39.207Z,1.61
2022-11-18T05:52:12.210Z,1.54
2022-11-18T05:54:48.218Z,1.56
2022-11-18T05:57:21.009Z,1.59
2022-11-18T05:59:53.848Z,1.61
2022-11-18T06:02:27.034Z,1.56
2022-11-18T06:05:02.597Z,1.59
2022-11-18T06:07:43.079Z,1.61
2022-11-18T06:10:29.749Z,1.66
2022-11-18T06:13:06.279Z,1.65
2022-11-18T06:15:44.182Z,1.61
2022-11-18T06:18:32.012Z,1.57
2022-11-18T06:21:06.689Z,1.59
2022-11-18T06:23:42.077Z,1.67
2022-11-18T06:26:17.629Z,1.77
2022-11-18T06:28:51.389Z,1.79
2022-11-18T06:31:25.986Z,1.73
2022-11-18T06:33:58.833Z,1.67
2022-11-18T06:36:31.652Z,1.66
2022-11-18T06:39:08.817Z,1.59
2022-11-18T06:41:41.834Z,1.55
2022-11-18T06:44:15.429Z,1.53
2022-11-18T06:46:58.115Z,1.52
2022-11-18T06:49:31.256Z,1.52
2022-11-18T06:52:03.994Z,1.47
2022-11-18T06:54:37.032Z,1.40
2022-11-18T06:57:10.098Z,1.36
2022-11-18T06:59:43.058Z,1.33
2022-11-18T07:02:17.538Z,1.37
2022-11-18T07:04:50.521Z,1.40
2022-11-18T07:07:24.049Z,1.38
2022-11-18T07:09:57.117Z,1.40
2022-11-18T07:12:30.479Z,1.49
2022-11-18T07:15:03.345Z,1.53
2022-11-18T07:17:36.409Z,1.56
2022-11-18T07:20:10.503Z,1.61
2022-11-18T07:22:42.464Z,1.57
2022-11-18T07:25:15.591Z,1.49
2022-11-18T07:27:48.745Z,1.48
2022-11-18T07:30:22.310Z,1.44
2022-11-18T07:32:55.012Z,1.44
2022-11-18T07:35:27.701Z,1.46
2022-11-18T07:38:00.749Z,1.47
2022-11-18T07:40:34.310Z,1.48
2022-11-18T07:43:07.595Z,1.43
2022-11-18T07:45:40.564Z,1.41
2022-11-18T07:48:13.696Z,1.41
2022-11-18T07:50:48.404Z,1.44
2022-11-18T07:53:21.485Z,1.47
2022-11-18T07:55:57.051Z,1.45
2022-11-18T07:58:31.031Z,1.47
2022-11-18T08:01:13.903Z,1.46
2022-11-18T08:03:48.165Z,1.49
2022-11-18T08:06:22.165Z,1.50
2022-11-18T08:08:55.476Z,1.53
2022-11-18T08:11:29.486Z,1.54
2022-11-18T08:14:03.129Z,1.63
2022-11-18T08:16:36.678Z,1.66
2022-11-18T08:19:09.932Z,1.68
2022-11-18T08:21:43.221Z,1.66
2022-11-18T08:24:16.761Z,1.68
2022-11-18T08:26:50.471Z,1.71
2022-11-18T08:29:25.521Z,1.70
2022-11-18T08:32:00.351Z,1.77
2022-11-18T08:34:33.421Z,1.77
2022-11-18T08:37:06.377Z,1.79
2022-11-18T08:39:39.221Z,1.90
2022-11-18T08:42:13.096Z,2.02
2022-11-18T08:44:46.475Z,2.08
2022-11-18T08:47:19.889Z,2.15
2022-11-18T08:49:53.689Z,2.13
2022-11-18T08:52:26.752Z,2.08
2022-11-18T08:54:59.938Z,2.00
2022-11-18T08:57:33.300Z,1.93
2022-11-18T09:00:08.640Z,1.95
2022-11-18T09:02:42.512Z,2.01
2022-11-18T09:05:15.556Z,2.02
2022-11-18T09:07:50.228Z,2.03
2022-11-18T09:10:23.158Z,2.02
2022-11-18T09:13:18.130Z,2.00
2022-11-18T09:15:31.800Z,2.06
2022-11-18T09:18:05.654Z,2.17
2022-11-18T09:20:38.780Z,2.19
2022-11-18T09:23:13.541Z,2.22
2022-11-18T09:25:46.596Z,2.27
2022-11-18T09:28:20.006Z,2.32
2022-11-18T09:30:53.002Z,2.39
2022-11-18T09:33:26.260Z,2.44
2022-11-18T09:35:59.218Z,2.41
2022-11-18T09:38:33.447Z,2.34
2022-11-18T09:41:19.489Z,2.29
2022-11-18T09:44:03.037Z,2.28
2022-11-18T09:46:55.809Z,2.28
2022-11-18T09:49:39.451Z,2.30
2022-11-18T09:52:35.969Z,2.32
2022-11-18T09:55:18.138Z,2.34
2022-11-18T09:57:54.263Z,2.33
2022-11-18T10:00:31.254Z,2.27
2022-11-18T10:03:31.857Z,2.23
2022-11-18T10:06:23.403Z,2.24
2022-11-18T10:09:29.321Z,2.21
2022-11-18T10:12:40.709Z,2.17
2022-11-18T10:15:42.976Z,2.20
2022-11-18T10:18:59.600Z,2.25
2022-11-18T10:21:39.206Z,2.29
2022-11-18T10:24:34.688Z,2.29
2022-11-18T10:27:15.841Z,2.25
2022-11-18T10:29:55.588Z,2.24
2022-11-18T10:32:28.946Z,2.19
2022-11-18T10:35:02.307Z,2.19
2022-11-18T10:38:06.204Z,2.23
2022-11-18T10:40:18.169Z,2.26
2022-11-18T10:42:50.937Z,2.27
2022-11-18T10:45:31.754Z,2.28
2022-11-18T10:48:20.151Z,2.27
2022-11-18T10:50:56.073Z,2.21
2022-11-18T10:53:35.354Z,2.15
2022-11-18T10:56:12.644Z,2.17
2022-11-18T10:58:53.059Z,2.24
2022-11-18T11:01:28.620Z,2.33
2022-11-18T11:04:24.019Z,2.35
2022-11-18T11:06:59.872Z,2.37
2022-11-18T11:09:34.886Z,2.40
2022-11-18T11:12:19.095Z,2.41
2022-11-18T11:14:58.155Z,2.41
2022-11-18T11:17:44.088Z,2.35
2022-11-18T11:20:24.377Z,2.32
2022-11-18T11:22:57.438Z,2.34
2022-11-18T11:28:41.315Z,2.38
2022-11-18T11:31:21.818Z,2.35
2022-11-18T11:34:08.294Z,2.33
2022-11-18T11:37:25.383Z,2.33
2022-11-18T11:40:22.353Z,2.30
2022-11-18T11:43:09.092Z,2.31
2022-11-18T11:46:06.229Z,2.38
2022-11-18T11:49:02.811Z,2.34
2022-11-18T11:51:43.451Z,2.33
2022-11-18T11:55:05.642Z,2.41
2022-11-18T11:57:48.975Z,2.37
2022-11-18T12:00:23.416Z,2.26
2022-11-18T12:03:25.753Z,2.23
2022-11-18T12:05:58.698Z,2.24
2022-11-18T12:08:35.134Z,2.26
2022-11-18T12:11:42.720Z,2.27
2022-11-18T12:14:26.179Z,2.29
2022-11-18T12:17:12.516Z,2.27
2022-11-18T12:19:45.300Z,2.28
2022-11-18T12:22:18.094Z,2.31
2022-11-18T12:24:52.231Z,2.31
2022-11-18T12:27:32.611Z,2.31
2022-11-18T12:30:06.826Z,2.28
2022-11-18T12:32:45.651Z,2.29
2022-11-18T12:35:32.530Z,2.30
2022-11-18T12:38:05.755Z,2.35
2022-11-18T12:40:52.643Z,2.34
2022-11-18T12:43:49.161Z,2.27
2022-11-18T12:46:45.696Z,2.15
2022-11-18T12:49:30.980Z,2.11
2022-11-18T12:52:06.719Z,2.14
2022-11-18T12:54:48.893Z,2.20
2022-11-18T12:57:30.998Z,2.24
2022-11-18T13:00:26.834Z,2.23
2022-11-18T13:03:03.917Z,2.23
2022-11-18T13:05:37.343Z,2.19
2022-11-18T13:08:13.721Z,2.19
2022-11-18T13:10:56.281Z,2.21
2022-11-18T13:13:34.435Z,2.22
2022-11-18T13:16:44.117Z,2.25
2022-11-18T13:19:26.205Z,2.27
2022-11-18T13:22:19.546Z,2.21
2022-11-18T13:24:54.327Z,2.16
2022-11-18T13:27:47.846Z,2.08
2022-11-18T13:30:21.102Z,2.00
2022-11-18T13:32:56.101Z,1.99
2022-11-18T13:35:30.274Z,2.02
2022-11-18T13:38:06.422Z,2.05
2022-11-18T13:41:05.486Z,2.09
2022-11-18T13:43:39.904Z,2.09
2022-11-18T13:46:19.704Z,2.06
2022-11-18T13:48:56.615Z,2.05
2022-11-18T13:51:29.513Z,2.05
2022-11-18T13:54:03.153Z,2.07
2022-11-18T13:56:37.564Z,2.08
2022-11-18T13:59:20.299Z,2.09
2022-11-18T14:01:59.812Z,2.12
2022-11-18T14:04:34.665Z,2.16
2022-11-18T14:07:30.321Z,2.14
2022-11-18T14:10:09.244Z,2.07
2022-11-18T14:12:42.153Z,2.07
2022-11-18T14:15:24.404Z,1.98
2022-11-18T14:18:02.673Z,1.93
2022-11-18T14:20:35.816Z,1.94
2022-11-18T14:23:13.472Z,1.99
2022-11-18T14:25:47.364Z,2.05
2022-11-18T14:28:38.744Z,2.13
2022-11-18T14:31:22.233Z,2.14
2022-11-18T14:34:24.172Z,2.13
2022-11-18T14:36:58.359Z,2.17
2022-11-18T14:39:33.455Z,2.15
2022-11-18T14:42:07.033Z,2.12
2022-11-18T14:44:39.987Z,2.10
2022-11-18T14:47:20.171Z,2.12
2022-11-18T14:49:54.436Z,2.14
2022-11-18T14:52:27.602Z,2.13
2022-11-18T14:55:00.805Z,2.19
2022-11-18T14:57:34.179Z,2.19
2022-11-18T15:00:08.643Z,2.20
2022-11-18T15:02:40.694Z,2.21
2022-11-18T15:05:13.663Z,2.16
2022-11-18T15:07:47.734Z,2.12
2022-11-18T15:10:21.336Z,2.11
2022-11-18T15:12:54.488Z,2.12
2022-11-18T15:15:27.449Z,2.15
2022-11-18T15:18:00.247Z,2.20
2022-11-18T15:20:33.935Z,2.20
2022-11-18T15:23:06.829Z,2.23
2022-11-18T15:25:41.084Z,2.25
2022-11-18T15:28:14.152Z,2.23
2022-11-18T15:30:46.927Z,2.20
2022-11-18T15:33:20.547Z,2.19
2022-11-18T15:35:54.228Z,2.20
2022-11-18T15:38:27.398Z,2.21
2022-11-18T15:41:00.363Z,2.24
2022-11-18T15:43:33.787Z,2.31
2022-11-18T15:46:06.925Z,2.40
2022-11-18T15:48:40.025Z,2.46
2022-11-18T15:51:14.582Z,2.47
2022-11-18T15:53:47.796Z,2.47
2022-11-18T15:56:25.861Z,2.45
2022-11-18T15:59:08.255Z,2.45
2022-11-18T16:01:46.218Z,2.43
2022-11-18T16:04:20.489Z,2.35
2022-11-18T16:06:54.150Z,2.29
2022-11-18T16:09:28.898Z,2.33
2022-11-18T16:12:19.786Z,2.37
2022-11-18T16:14:54.323Z,2.34
2022-11-18T16:17:27.374Z,2.33
2022-11-18T16:20:00.825Z,2.37
2022-11-18T16:22:34.786Z,2.42
2022-11-18T16:25:08.233Z,2.46
2022-11-18T16:27:41.949Z,2.50
2022-11-18T16:30:33.329Z,2.54
2022-11-18T16:33:06.755Z,2.51
2022-11-18T16:35:41.674Z,2.49
2022-11-18T16:38:14.930Z,2.46
2022-11-18T16:40:47.797Z,2.44
2022-11-18T16:43:20.783Z,2.43
2022-11-18T16:45:55.424Z,2.44
2022-11-18T16:48:28.434Z,2.45
2022-11-18T16:51:21.260Z,2.46
2022-11-18T16:54:03.425Z,2.47
2022-11-18T16:56:37.661Z,2.44
2022-11-18T16:59:21.886Z,2.45
2022-11-18T17:01:57.160Z,2.45
2022-11-18T17:04:31.422Z,2.45
2022-11-18T17:07:04.890Z,2.46
2022-11-18T17:09:37.990Z,2.45
2022-11-18T17:12:11.769Z,2.44
2022-11-18T17:14:45.175Z,2.45
2022-11-18T17:17:18.393Z,2.47
2022-11-18T17:19:52.062Z,2.46
2022-11-18T17:22:24.815Z,2.41
2022-11-18T17:25:03.777Z,2.41
2022-11-18T17:27:33.911Z,2.42
2022-11-18T17:30:07.855Z,2.45
2022-11-18T17:32:41.678Z,2.47
2022-11-18T17:35:14.879Z,2.50
2022-11-18T17:37:49.811Z,2.50
2022-11-18T17:40:22.740Z,2.51
2022-11-18T17:42:55.663Z,2.51
2022-11-18T17:45:29.141Z,2.53
2022-11-18T17:48:02.227Z,2.52
2022-11-18T17:50:35.841Z,2.52
2022-11-18T17:53:09.954Z,2.53
2022-11-18T17:55:43.482Z,2.54
2022-11-18T17:58:16.584Z,2.54
2022-11-18T18:00:49.951Z,2.55
2022-11-18T18:03:23.004Z,2.56
2022-11-18T18:06:02.848Z,2.58
2022-11-18T18:08:36.403Z,2.57
2022-11-18T18:11:16.529Z,2.58
2022-11-18T18:14:07.348Z,2.61
2022-11-18T18:16:46.128Z,2.65
2022-11-18T18:19:22.746Z,2.64
2022-11-18T18:21:56.071Z,2.66
2022-11-18T18:24:29.063Z,2.64
2022-11-18T18:27:02.661Z,2.67
2022-11-18T18:29:35.673Z,2.69
2022-11-18T18:32:08.879Z,2.70
2022-11-18T18:34:41.713Z,2.69
2022-11-18T18:37:14.822Z,2.64
2022-11-18T18:39:48.086Z,2.63
2022-11-18T18:42:21.275Z,2.63
2022-11-18T18:45:12.312Z,2.63
2022-11-18T18:47:46.383Z,2.64
2022-11-18T18:50:21.872Z,2.63
2022-11-18T18:52:54.722Z,2.61
2022-11-18T18:55:27.863Z,2.57
2022-11-18T18:58:01.627Z,2.60
2022-11-18T19:00:35.656Z,2.63
2022-11-18T19:03:09.527Z,2.64
2022-11-18T19:06:16.954Z,2.66
2022-11-18T19:08:17.803Z,2.66
2022-11-18T19:10:51.159Z,2.61
2022-11-18T19:13:40.746Z,2.61
2022-11-18T19:16:13.662Z,2.61
2022-11-18T19:18:46.908Z,2.60
2022-11-18T19:21:20.493Z,2.61
2022-11-18T19:23:54.857Z,2.64
2022-11-18T19:26:28.916Z,2.66
2022-11-18T19:29:03.364Z,2.67
2022-11-18T19:31:39.748Z,2.69
2022-11-18T19:34:12.818Z,2.71
2022-11-18T19:36:45.798Z,2.73
2022-11-18T19:39:19.101Z,2.71
2022-11-18T19:41:52.547Z,2.67
2022-11-18T19:44:26.830Z,2.64
2022-11-18T19:46:59.804Z,2.63
2022-11-18T19:49:33.235Z,2.66
2022-11-18T19:52:06.757Z,2.68
2022-11-18T19:54:44.582Z,2.67
2022-11-18T19:57:17.844Z,2.69
2022-11-18T19:59:51.593Z,2.66
2022-11-18T20:02:24.509Z,2.64
2022-11-18T20:05:15.609Z,2.63
2022-11-18T20:07:50.143Z,2.55
2022-11-18T20:10:24.274Z,2.48
2022-11-18T20:12:57.930Z,2.47
2022-11-18T20:15:30.865Z,2.50
2022-11-18T20:18:04.378Z,2.53
2022-11-18T20:20:38.825Z,2.54
2022-11-18T20:23:11.041Z,2.52
2022-11-18T20:25:43.645Z,2.55
2022-11-18T20:28:16.636Z,2.58
2022-11-18T20:30:51.490Z,2.61
2022-11-18T20:33:25.306Z,2.60
2022-11-18T20:35:58.504Z,2.58
2022-11-18T20:38:31.141Z,2.60
2022-11-18T20:41:09.718Z,2.58
2022-11-18T20:43:44.269Z,2.54
2022-11-18T20:46:20.949Z,2.51
2022-11-18T20:48:54.012Z,2.49
2022-11-18T20:51:29.506Z,2.47
2022-11-18T20:54:04.225Z,2.46
2022-11-18T20:56:37.439Z,2.48
2022-11-18T20:59:10.986Z,2.50
2022-11-18T21:01:44.744Z,2.50
2022-11-18T21:04:18.807Z,2.51
2022-11-18T21:06:53.333Z,2.49
2022-11-18T21:09:26.754Z,2.46
2022-11-18T21:12:00.857Z,2.47
2022-11-18T21:14:32.973Z,2.45
2022-11-18T21:17:05.944Z,2.45
2022-11-18T21:19:39.603Z,2.46
2022-11-18T21:22:12.890Z,2.46
2022-11-18T21:24:45.669Z,2.48
2022-11-18T21:27:19.529Z,2.51
2022-11-18T21:29:52.703Z,2.57
2022-11-18T21:32:25.591Z,2.62
2022-11-18T21:34:59.023Z,2.61
2022-11-18T21:37:33.584Z,2.62
2022-11-18T21:40:07.609Z,2.61
2022-11-18T21:42:41.680Z,2.61
2022-11-18T21:45:16.035Z,2.61
2022-11-18T21:47:49.148Z,2.63
2022-11-18T21:50:21.873Z,2.62
2022-11-18T21:52:55.042Z,2.61
2022-11-18T21:55:28.129Z,2.58
2022-11-18T21:58:03.985Z,2.51
2022-11-18T22:00:35.782Z,2.48
2022-11-18T22:03:10.557Z,2.49
2022-11-18T22:05:43.708Z,2.49
2022-11-18T22:08:18.217Z,2.49
2022-11-18T22:10:51.798Z,2.50
2022-11-18T22:13:25.699Z,2.51
2022-11-18T22:16:04.716Z,2.48
2022-11-18T22:18:40.473Z,2.49
2022-11-18T22:21:20.001Z,2.49
2022-11-18T22:23:53.017Z,2.50
2022-11-18T22:26:26.094Z,2.50
2022-11-18T22:29:00.160Z,2.48
2022-11-18T22:31:35.224Z,2.50
2022-11-18T22:34:08.003Z,2.54
2022-11-18T22:36:42.019Z,2.57
2022-11-18T22:39:14.940Z,2.59
2022-11-18T22:42:05.959Z,2.62
2022-11-18T22:44:39.241Z,2.61
2022-11-18T22:47:12.329Z,2.60
2022-11-18T22:49:45.410Z,2.57
2022-11-18T22:52:18.373Z,2.57
2022-11-18T22:54:53.037Z,2.57
2022-11-18T22:57:25.955Z,2.57
2022-11-18T22:59:58.925Z,2.54
2022-11-18T23:02:31.938Z,2.56
2022-11-18T23:05:05.379Z,2.56
2022-11-18T23:07:38.378Z,2.56
2022-11-18T23:10:11.569Z,2.56
2022-11-18T23:13:02.391Z,2.57
2022-11-18T23:15:35.762Z,2.59
2022-11-18T23:18:11.771Z,2.60
2022-11-18T23:20:44.151Z,2.59
2022-11-18T23:23:17.047Z,2.56
2022-11-18T23:25:49.918Z,2.54
2022-11-18T23:28:23.412Z,2.52
2022-11-18T23:31:09.997Z,2.52
2022-11-18T23:33:43.985Z,2.50
2022-11-18T23:36:19.935Z,2.45
2022-11-18T23:38:54.832Z,2.41
2022-11-18T23:41:27.980Z,2.42
2022-11-18T23:44:01.940Z,2.44
2022-11-18T23:46:36.351Z,2.43
2022-11-18T23:49:09.882Z,2.41
2022-11-18T23:51:42.467Z,2.39
2022-11-18T23:54:15.165Z,2.40
2022-11-18T23:56:48.019Z,2.42
2022-11-18T23:59:21.116Z,2.46
